TAF KOFK
KOFK 090520Z 0906/1006 15014G22KT P6SM BKN250 WS010/20045KT FM090800 18009KT P6SM BKN250 FM091500 31013G22KT P6SM SKC WS010/34045KT FM100100 01005KT P6SM BKN250=
METAR KOFK
WC KOFK
WS KOFK
WV KOFK